»·PEaware :: ASH5852 KAMA-KPHX

ASH5852 :: KAMA-KPHX

FLIGHT INFORMATION

Flight Status: Arrived
Operator:
Mesa Airlines
More flights by this operator :: More flights under this callsign
Pilot: Drew L. (13237)
Aircraft: CANADAIR CL-600 CRJ-700
(CRJ7)
More flights by this aircraft type
Origin: KAMA Amarillo Intl
United States
Destination: KPHX Phoenix Sky Harbor Intl
United States
More flights between these airports :: More routes between these airports
Route: TCC ABQ ZUN EAGUL6
File this flight plan on PilotEdge
Remarks: PBN / D1 DOF / 180422 REG / N921SB OPR / ASH PER / C RMK / TCAS SIMBRIEF
Altitude:
(Current/Filed)
32,000ft
Speed:
(Current/Filed)
419kts
Departed: 22-Apr-18 10:45 AM
Arrived: 22-Apr-18 12:27 PM
Distance/Time
Traveled:
521nm/1:42
Distance/Time
To Go:
Arrived

Flight Plot

Page will automatically refresh every two minutes.

Flight plan parsing failed; only flown route is shown


Map Options




Map Legend


Flown Route
Filed Route
Departure Airport
Arrival Airport
Navaid (VOR, NDB)
Fix

Horizontal Profiles

Position Reports

Time Latitude Longitude Heading Altitude Ground
Speed
22-Apr-18 10:19 35.219026 -101.706414 106 3614ft 0kts
22-Apr-18 10:20 35.219026 -101.706414 106 3614ft 0kts
22-Apr-18 10:21 35.219026 -101.706414 106 3614ft 0kts
22-Apr-18 10:22 35.219026 -101.706414 106 3614ft 0kts
22-Apr-18 10:23 35.219026 -101.706414 106 3614ft 0kts
22-Apr-18 10:24 35.219026 -101.706414 106 3614ft 0kts
22-Apr-18 10:25 35.219026 -101.706414 106 3614ft 0kts
22-Apr-18 10:26 35.219026 -101.706414 106 3614ft 0kts
22-Apr-18 10:27 35.219026 -101.706414 106 3614ft 0kts
22-Apr-18 10:28 35.219026 -101.706414 106 3614ft 0kts
22-Apr-18 10:29 35.219026 -101.706414 106 3614ft 0kts
22-Apr-18 10:30 35.219026 -101.706414 106 3614ft 0kts
22-Apr-18 10:31 35.219026 -101.706414 106 3614ft 0kts
22-Apr-18 10:32 35.219026 -101.706414 106 3614ft 0kts
22-Apr-18 10:33 35.219026 -101.706414 106 3614ft 0kts
22-Apr-18 10:34 35.219026 -101.706414 106 3614ft 0kts
22-Apr-18 10:35 35.219026 -101.706414 106 3614ft 0kts
22-Apr-18 10:36 35.219026 -101.706414 106 3614ft 0kts
22-Apr-18 10:37 35.219026 -101.706414 106 3614ft 0kts
22-Apr-18 10:38 35.219026 -101.706414 106 3614ft 0kts
22-Apr-18 10:39 35.219026 -101.706414 106 3614ft 0kts
22-Apr-18 10:40 35.219045 -101.706653 85 3614ft 2kts
22-Apr-18 10:41 35.219064 -101.707441 91 3614ft 2kts
22-Apr-18 10:42 35.219066 -101.707646 89 3614ft 0kts
22-Apr-18 10:43 35.219066 -101.707646 89 3614ft 0kts
22-Apr-18 10:44 35.219066 -101.707646 89 3614ft 47kts
22-Apr-18 10:45 35.219066 -101.707646 89 3614ft 66kts
22-Apr-18 10:46 35.219066 -101.707645 89 3614ft 0kts
22-Apr-18 10:47 35.219238 -101.707262 42 3614ft 0kts
22-Apr-18 10:48 35.220829 -101.705907 34 3614ft 15kts
22-Apr-18 10:49 35.223870 -101.703812 44 3614ft 11kts
22-Apr-18 10:50 35.227920 -101.698738 45 3614ft 21kts
22-Apr-18 10:51 35.224684 -101.693948 136 3614ft 32kts
22-Apr-18 10:52 35.219265 -101.687913 136 3614ft 30kts
22-Apr-18 10:53 35.212813 -101.680462 69 3614ft 9kts
22-Apr-18 10:54 35.213043 -101.680049 50 3614ft 0kts
22-Apr-18 10:55 35.213043 -101.680049 50 3614ft 0kts
22-Apr-18 10:56 35.216452 -101.682044 316 3614ft 76kts
22-Apr-18 10:57 35.248419 -101.718329 316 5556ft 192kts
22-Apr-18 10:58 35.268220 -101.786112 273 8830ft 257kts
22-Apr-18 10:59 35.270608 -101.880379 269 12919ft 284kts
22-Apr-18 11:00 35.265271 -101.982798 270 16183ft 320kts
22-Apr-18 11:01 35.260359 -102.094619 270 18518ft 341kts
22-Apr-18 11:02 35.254719 -102.211273 270 21709ft 345kts
22-Apr-18 11:03 35.249128 -102.329790 270 24416ft 352kts
22-Apr-18 11:04 35.243402 -102.450819 268 26669ft 361kts
22-Apr-18 11:05 35.237162 -102.575065 268 28691ft 369kts
22-Apr-18 11:06 35.230817 -102.704588 267 29991ft 390kts
22-Apr-18 11:07 35.224168 -102.833425 267 32205ft 377kts
22-Apr-18 11:08 35.217217 -102.966882 266 32239ft 410kts
22-Apr-18 11:09 35.209477 -103.110531 266 32225ft 434kts
22-Apr-18 11:10 35.201458 -103.260186 266 32213ft 444kts
22-Apr-18 11:11 35.192946 -103.411213 265 32204ft 440kts
22-Apr-18 11:12 35.184763 -103.553130 265 32197ft 403kts
22-Apr-18 11:13 35.179021 -103.690326 268 32199ft 403kts
22-Apr-18 11:14 35.175206 -103.827171 267 32203ft 403kts
22-Apr-18 11:15 35.170727 -103.964539 267 32209ft 403kts
22-Apr-18 11:16 35.166208 -104.101507 266 32217ft 404kts
22-Apr-18 11:17 35.161555 -104.238826 266 32226ft 405kts
22-Apr-18 11:18 35.156583 -104.376741 266 32234ft 406kts
22-Apr-18 11:19 35.151429 -104.514361 266 32242ft 406kts
22-Apr-18 11:20 35.146140 -104.652073 266 32249ft 406kts
22-Apr-18 11:21 35.140927 -104.790432 266 32255ft 407kts
22-Apr-18 11:22 35.135388 -104.928558 265 32260ft 408kts
22-Apr-18 11:23 35.129541 -105.067202 265 32265ft 408kts
22-Apr-18 11:24 35.123681 -105.205475 265 32271ft 408kts
22-Apr-18 11:25 35.117787 -105.343925 265 32276ft 409kts
22-Apr-18 11:26 35.111563 -105.483032 265 32282ft 409kts
22-Apr-18 11:27 35.105183 -105.621762 265 32286ft 410kts
22-Apr-18 11:28 35.098567 -105.760624 265 32282ft 410kts
22-Apr-18 11:29 35.091840 -105.900213 265 32269ft 411kts
22-Apr-18 11:30 35.085009 -106.039574 264 32258ft 412kts
22-Apr-18 11:31 35.078003 -106.179930 264 32253ft 414kts
22-Apr-18 11:32 35.070682 -106.320268 264 32243ft 415kts
22-Apr-18 11:33 35.063190 -106.460925 264 32236ft 416kts
22-Apr-18 11:34 35.055547 -106.602228 264 32230ft 417kts
22-Apr-18 11:35 35.048002 -106.743358 264 32238ft 417kts
22-Apr-18 11:36 35.041363 -106.885013 266 32255ft 418kts
22-Apr-18 11:37 35.038904 -107.026737 265 32251ft 418kts
22-Apr-18 11:38 35.034904 -107.168637 265 32246ft 419kts
22-Apr-18 11:39 35.030896 -107.311300 265 32244ft 420kts
22-Apr-18 11:40 35.026858 -107.453777 265 32243ft 421kts
22-Apr-18 11:41 35.022666 -107.596609 265 32245ft 422kts
22-Apr-18 11:42 35.018393 -107.740222 265 32246ft 423kts
22-Apr-18 11:43 35.013807 -107.883372 265 32247ft 422kts
22-Apr-18 11:44 35.008977 -108.026919 265 32246ft 422kts
22-Apr-18 11:45 35.003998 -108.170048 265 32245ft 423kts
22-Apr-18 11:46 34.998905 -108.313449 265 32242ft 424kts
22-Apr-18 11:47 34.993587 -108.457556 265 32239ft 425kts
22-Apr-18 11:48 34.988249 -108.601502 265 32236ft 426kts
22-Apr-18 11:49 34.982732 -108.746209 264 32232ft 427kts
22-Apr-18 11:50 34.976924 -108.890732 264 32231ft 427kts
22-Apr-18 11:51 34.970825 -109.035495 264 32228ft 428kts
22-Apr-18 11:52 34.958051 -109.179524 253 32212ft 424kts
22-Apr-18 11:53 34.908645 -109.308994 242 32204ft 422kts
22-Apr-18 11:54 34.861874 -109.440248 245 32202ft 423kts
22-Apr-18 11:55 34.813277 -109.570994 244 32201ft 423kts
22-Apr-18 11:56 34.765456 -109.701726 244 32203ft 423kts
22-Apr-18 11:57 34.716945 -109.832527 244 32206ft 423kts
22-Apr-18 11:58 34.668456 -109.962778 244 32211ft 424kts
22-Apr-18 11:59 34.619910 -110.093061 244 32217ft 424kts
22-Apr-18 12:00 34.571084 -110.223077 243 31781ft 414kts
22-Apr-18 12:01 34.523977 -110.348235 243 30117ft 404kts
22-Apr-18 12:02 34.485190 -110.451127 243 28622ft 402kts
22-Apr-18 12:03 34.438541 -110.574070 243 27002ft 400kts
22-Apr-18 12:04 34.392665 -110.694521 243 26200ft 386kts
22-Apr-18 12:05 34.345914 -110.809765 234 24872ft 369kts
22-Apr-18 12:06 34.274952 -110.896721 224 22591ft 364kts
22-Apr-18 12:07 34.206383 -110.986850 226 20496ft 366kts
22-Apr-18 12:08 34.135084 -111.078372 226 18500ft 380kts
22-Apr-18 12:09 34.063806 -111.169892 226 16561ft 360kts
22-Apr-18 12:10 33.996213 -111.256519 226 14800ft 352kts
22-Apr-18 12:11 33.929184 -111.342198 226 14152ft 347kts
22-Apr-18 12:12 33.865978 -111.426811 234 13760ft 338kts
22-Apr-18 12:13 33.819318 -111.522109 237 12562ft 324kts
22-Apr-18 12:14 33.770866 -111.612442 236 11387ft 315kts
22-Apr-18 12:15 33.724568 -111.699585 236 10584ft 305kts
22-Apr-18 12:16 33.679049 -111.784791 236 9909ft 298kts
22-Apr-18 12:17 33.636389 -111.865407 236 9863ft 276kts
22-Apr-18 12:18 33.596364 -111.940789 236 9718ft 259kts
22-Apr-18 12:19 33.559770 -112.009339 236 9249ft 235kts
22-Apr-18 12:20 33.538932 -112.079752 267 8192ft 225kts
22-Apr-18 12:21 33.538827 -112.151673 268 6797ft 199kts
22-Apr-18 12:22 33.503665 -112.187936 170 4969ft 207kts
22-Apr-18 12:23 33.455856 -112.152501 129 3833ft 208kts
22-Apr-18 12:24 33.441076 -112.090336 89 2441ft 166kts
22-Apr-18 12:25 33.440856 -112.040388 90 1351ft 142kts
22-Apr-18 12:26 33.440433 -112.007591 132 1142ft 19kts
22-Apr-18 12:27 33.439794 -112.006538 104 1142ft 15kts
22-Apr-18 12:28 33.438376 -112.000345 183 1142ft 13kts
22-Apr-18 12:29 33.437210 -112.001146 270 1142ft 0kts
22-Apr-18 12:30 33.437210 -112.001146 270 1142ft 0kts

Navigation Log

Ident Type
Flight plan parsing failed, navigation log unavailable